If you wish to contribute or participate in the discussions about articles you are invited to join SKYbrary as a registered user

 Actions

Coronel FAP Francisco Secada Vignetta International Airport

From SKYbrary Wiki

SPQT
Airport
ICAO: SPQT – IATA: IQT
Summary
Name Coronel FAP Francisco Secada Vignetta International Airport
Region South America and Caribbean
Territory Peru PE.gif
Location Iquitos, Loreto
Serving Iquitos
Elevation 93.269 m
306 ft
306 ft93.269 m
Type medium airport
Coordinates 3° 47' 5.06" S, 73° 18' 31.70" W
Runways
Designator Length Width Surface ROPS
6/24 2500 m8,202.1 ft
45 m147.638 ft
CON /


METAR
Observation SPQT 211800Z VRB02KT 9999 BKN015 BKN100 30/24 Q1012 NOSIG RMK BIRD HAZARD RWY 06/24 PP000
Station Iquitos
Date/Time 21 September 2019 18:00:00
Wind direction °
Wind speed 02 kts
Lowest cloud amount broken clouds
Temperature 30°C
Dew point 24°C
Humidity 70%
QNH 1012 hPa
Weather condition n/a

airport serving Iquitos, capital of Loreto Region and Peru's fifth largest city. Iquitos and Pucallpa are the main air hubs in the Peruvian Amazon.

Climatology

Equatorial climate (Köppen climate classification Af).

Maps

Terrain

Loading map...

Airport Layout

Loading map...


Accidents & Serious Incidents at or in vicinity of SPQT

None on SKYbrary